sensor_id;sensor_type;location;lat;lon;timestamp;P1;durP1;ratioP1;P2;durP2;ratioP2
19854;SDS011;10088;47.946;2.532;2023-04-25T00:01:56;4.17;;;2.67;;
19854;SDS011;10088;47.946;2.532;2023-04-25T00:04:22;5.03;;;2.87;;
19854;SDS011;10088;47.946;2.532;2023-04-25T00:06:48;4.77;;;3.07;;
19854;SDS011;10088;47.946;2.532;2023-04-25T00:09:13;6.73;;;3.30;;
19854;SDS011;10088;47.946;2.532;2023-04-25T00:11:39;5.87;;;3.43;;
19854;SDS011;10088;47.946;2.532;2023-04-25T00:14:05;5.83;;;3.13;;
19854;SDS011;10088;47.946;2.532;2023-04-25T00:16:31;4.20;;;3.10;;
19854;SDS011;10088;47.946;2.532;2023-04-25T00:18:59;5.77;;;3.20;;
19854;SDS011;10088;47.946;2.532;2023-04-25T00:21:24;4.23;;;3.37;;
19854;SDS011;10088;47.946;2.532;2023-04-25T00:23:51;6.03;;;2.80;;
19854;SDS011;10088;47.946;2.532;2023-04-25T00:26:17;5.03;;;3.27;;
19854;SDS011;10088;47.946;2.532;2023-04-25T00:28:42;5.13;;;3.00;;
19854;SDS011;10088;47.946;2.532;2023-04-25T00:31:07;4.90;;;2.80;;
19854;SDS011;10088;47.946;2.532;2023-04-25T00:33:33;5.07;;;3.27;;
19854;SDS011;10088;47.946;2.532;2023-04-25T00:35:58;7.03;;;3.23;;
19854;SDS011;10088;47.946;2.532;2023-04-25T00:38:23;6.03;;;3.17;;
19854;SDS011;10088;47.946;2.532;2023-04-25T00:40:49;4.50;;;3.20;;
19854;SDS011;10088;47.946;2.532;2023-04-25T00:43:14;4.23;;;3.00;;
19854;SDS011;10088;47.946;2.532;2023-04-25T00:45:39;4.83;;;3.20;;
19854;SDS011;10088;47.946;2.532;2023-04-25T00:48:05;5.83;;;3.07;;
19854;SDS011;10088;47.946;2.532;2023-04-25T00:50:32;5.77;;;2.90;;
19854;SDS011;10088;47.946;2.532;2023-04-25T00:52:57;5.67;;;3.13;;
19854;SDS011;10088;47.946;2.532;2023-04-25T00:55:23;6.37;;;3.30;;
19854;SDS011;10088;47.946;2.532;2023-04-25T00:57:48;4.83;;;3.30;;
19854;SDS011;10088;47.946;2.532;2023-04-25T01:00:14;4.97;;;3.10;;
19854;SDS011;10088;47.946;2.532;2023-04-25T01:02:40;5.63;;;3.30;;
19854;SDS011;10088;47.946;2.532;2023-04-25T01:05:05;8.87;;;2.90;;
19854;SDS011;10088;47.946;2.532;2023-04-25T01:07:30;7.83;;;3.37;;
19854;SDS011;10088;47.946;2.532;2023-04-25T01:09:56;4.87;;;2.70;;
19854;SDS011;10088;47.946;2.532;2023-04-25T01:12:22;3.40;;;2.50;;
19854;SDS011;10088;47.946;2.532;2023-04-25T01:14:48;4.00;;;2.73;;
19854;SDS011;10088;47.946;2.532;2023-04-25T01:17:13;4.80;;;2.83;;
19854;SDS011;10088;47.946;2.532;2023-04-25T01:19:39;4.40;;;2.67;;
19854;SDS011;10088;47.946;2.532;2023-04-25T01:22:05;4.40;;;2.70;;
19854;SDS011;10088;47.946;2.532;2023-04-25T01:24:33;6.30;;;2.77;;
19854;SDS011;10088;47.946;2.532;2023-04-25T01:26:59;3.70;;;2.70;;
19854;SDS011;10088;47.946;2.532;2023-04-25T01:29:25;3.70;;;2.53;;
19854;SDS011;10088;47.946;2.532;2023-04-25T01:31:51;5.00;;;2.87;;
19854;SDS011;10088;47.946;2.532;2023-04-25T01:34:17;6.37;;;2.70;;
19854;SDS011;10088;47.946;2.532;2023-04-25T01:36:42;8.33;;;2.93;;
19854;SDS011;10088;47.946;2.532;2023-04-25T01:39:07;6.00;;;3.10;;
19854;SDS011;10088;47.946;2.532;2023-04-25T01:41:33;4.90;;;2.60;;
19854;SDS011;10088;47.946;2.532;2023-04-25T01:43:59;7.03;;;2.90;;
19854;SDS011;10088;47.946;2.532;2023-04-25T01:46:25;4.10;;;3.17;;
19854;SDS011;10088;47.946;2.532;2023-04-25T01:48:50;4.47;;;2.70;;
19854;SDS011;10088;47.946;2.532;2023-04-25T01:51:16;5.97;;;2.73;;
19854;SDS011;10088;47.946;2.532;2023-04-25T01:53:41;7.27;;;3.67;;
19854;SDS011;10088;47.946;2.532;2023-04-25T01:56:07;8.07;;;3.30;;
19854;SDS011;10088;47.946;2.532;2023-04-25T01:58:32;6.53;;;4.00;;
19854;SDS011;10088;47.946;2.532;2023-04-25T02:00:58;5.13;;;3.07;;
19854;SDS011;10088;47.946;2.532;2023-04-25T02:03:23;9.73;;;3.30;;
19854;SDS011;10088;47.946;2.532;2023-04-25T02:05:48;7.93;;;3.70;;
19854;SDS011;10088;47.946;2.532;2023-04-25T02:08:13;5.03;;;3.50;;
19854;SDS011;10088;47.946;2.532;2023-04-25T02:10:39;5.43;;;3.30;;
19854;SDS011;10088;47.946;2.532;2023-04-25T02:13:04;11.33;;;3.60;;
19854;SDS011;10088;47.946;2.532;2023-04-25T02:15:30;9.53;;;3.87;;
19854;SDS011;10088;47.946;2.532;2023-04-25T02:17:55;5.67;;;3.13;;
19854;SDS011;10088;47.946;2.532;2023-04-25T02:20:21;7.93;;;4.10;;
19854;SDS011;10088;47.946;2.532;2023-04-25T02:22:47;6.47;;;4.20;;
19854;SDS011;10088;47.946;2.532;2023-04-25T02:25:12;6.90;;;3.23;;
19854;SDS011;10088;47.946;2.532;2023-04-25T02:27:38;5.07;;;3.33;;
19854;SDS011;10088;47.946;2.532;2023-04-25T02:30:03;8.03;;;3.57;;
19854;SDS011;10088;47.946;2.532;2023-04-25T02:32:29;5.53;;;2.97;;
19854;SDS011;10088;47.946;2.532;2023-04-25T02:34:55;6.13;;;3.70;;
19854;SDS011;10088;47.946;2.532;2023-04-25T02:37:20;7.13;;;3.60;;
19854;SDS011;10088;47.946;2.532;2023-04-25T02:39:45;11.07;;;4.23;;
19854;SDS011;10088;47.946;2.532;2023-04-25T02:42:11;5.97;;;3.70;;
19854;SDS011;10088;47.946;2.532;2023-04-25T02:44:36;6.63;;;3.77;;
19854;SDS011;10088;47.946;2.532;2023-04-25T02:47:01;8.53;;;2.90;;
19854;SDS011;10088;47.946;2.532;2023-04-25T02:49:26;10.40;;;4.00;;
19854;SDS011;10088;47.946;2.532;2023-04-25T02:51:52;7.70;;;3.77;;
19854;SDS011;10088;47.946;2.532;2023-04-25T02:54:17;7.70;;;3.30;;
19854;SDS011;10088;47.946;2.532;2023-04-25T02:56:42;11.13;;;3.87;;
19854;SDS011;10088;47.946;2.532;2023-04-25T02:59:07;7.00;;;4.10;;
19854;SDS011;10088;47.946;2.532;2023-04-25T03:01:33;9.53;;;4.30;;
19854;SDS011;10088;47.946;2.532;2023-04-25T03:03:58;9.30;;;4.23;;
19854;SDS011;10088;47.946;2.532;2023-04-25T03:06:23;9.13;;;4.60;;
19854;SDS011;10088;47.946;2.532;2023-04-25T03:08:48;7.47;;;4.30;;
19854;SDS011;10088;47.946;2.532;2023-04-25T03:11:14;9.90;;;5.10;;
19854;SDS011;10088;47.946;2.532;2023-04-25T03:13:39;8.40;;;4.50;;
19854;SDS011;10088;47.946;2.532;2023-04-25T03:16:04;9.70;;;4.50;;
19854;SDS011;10088;47.946;2.532;2023-04-25T03:18:30;10.43;;;4.33;;
19854;SDS011;10088;47.946;2.532;2023-04-25T03:20:55;9.67;;;4.60;;
19854;SDS011;10088;47.946;2.532;2023-04-25T03:23:20;9.57;;;4.20;;
19854;SDS011;10088;47.946;2.532;2023-04-25T03:25:46;5.43;;;3.77;;
19854;SDS011;10088;47.946;2.532;2023-04-25T03:28:11;8.27;;;4.67;;
19854;SDS011;10088;47.946;2.532;2023-04-25T03:30:36;16.17;;;4.27;;
19854;SDS011;10088;47.946;2.532;2023-04-25T03:33:02;13.73;;;4.73;;
19854;SDS011;10088;47.946;2.532;2023-04-25T03:35:27;10.10;;;4.87;;
19854;SDS011;10088;47.946;2.532;2023-04-25T03:37:52;6.80;;;4.17;;
19854;SDS011;10088;47.946;2.532;2023-04-25T03:40:18;8.83;;;3.90;;
19854;SDS011;10088;47.946;2.532;2023-04-25T03:42:43;7.10;;;5.13;;
19854;SDS011;10088;47.946;2.532;2023-04-25T03:45:08;11.17;;;4.43;;
19854;SDS011;10088;47.946;2.532;2023-04-25T03:47:34;9.10;;;4.43;;
19854;SDS011;10088;47.946;2.532;2023-04-25T03:49:59;12.40;;;4.70;;
19854;SDS011;10088;47.946;2.532;2023-04-25T03:52:26;11.10;;;4.90;;
19854;SDS011;10088;47.946;2.532;2023-04-25T03:54:51;12.43;;;4.77;;
19854;SDS011;10088;47.946;2.532;2023-04-25T03:57:17;9.20;;;4.97;;
19854;SDS011;10088;47.946;2.532;2023-04-25T03:59:42;19.60;;;4.60;;
19854;SDS011;10088;47.946;2.532;2023-04-25T04:02:07;5.53;;;3.47;;
19854;SDS011;10088;47.946;2.532;2023-04-25T04:04:32;6.83;;;4.37;;
19854;SDS011;10088;47.946;2.532;2023-04-25T04:06:58;8.73;;;4.60;;
19854;SDS011;10088;47.946;2.532;2023-04-25T04:09:23;8.87;;;4.87;;
19854;SDS011;10088;47.946;2.532;2023-04-25T04:11:48;11.53;;;4.70;;
19854;SDS011;10088;47.946;2.532;2023-04-25T04:14:13;14.30;;;4.93;;
19854;SDS011;10088;47.946;2.532;2023-04-25T04:16:39;13.97;;;5.43;;
19854;SDS011;10088;47.946;2.532;2023-04-25T04:19:04;9.20;;;4.90;;
19854;SDS011;10088;47.946;2.532;2023-04-25T04:21:29;11.33;;;5.10;;
19854;SDS011;10088;47.946;2.532;2023-04-25T04:23:55;11.13;;;5.37;;
19854;SDS011;10088;47.946;2.532;2023-04-25T04:26:20;8.53;;;5.00;;
19854;SDS011;10088;47.946;2.532;2023-04-25T04:28:48;12.63;;;4.57;;
19854;SDS011;10088;47.946;2.532;2023-04-25T04:31:13;12.87;;;5.00;;
19854;SDS011;10088;47.946;2.532;2023-04-25T04:33:41;12.93;;;5.20;;
19854;SDS011;10088;47.946;2.532;2023-04-25T04:36:07;8.70;;;5.03;;
19854;SDS011;10088;47.946;2.532;2023-04-25T04:38:32;9.47;;;5.20;;
19854;SDS011;10088;47.946;2.532;2023-04-25T04:40:58;10.07;;;4.30;;
19854;SDS011;10088;47.946;2.532;2023-04-25T04:43:23;12.00;;;5.00;;
19854;SDS011;10088;47.946;2.532;2023-04-25T04:45:48;9.87;;;4.87;;
19854;SDS011;10088;47.946;2.532;2023-04-25T04:48:15;9.60;;;4.87;;
19854;SDS011;10088;47.946;2.532;2023-04-25T04:50:40;12.43;;;5.20;;
19854;SDS011;10088;47.946;2.532;2023-04-25T04:53:06;10.97;;;5.03;;
19854;SDS011;10088;47.946;2.532;2023-04-25T04:55:31;8.07;;;5.07;;
19854;SDS011;10088;47.946;2.532;2023-04-25T04:57:56;8.43;;;4.73;;
19854;SDS011;10088;47.946;2.532;2023-04-25T05:00:21;10.03;;;5.00;;
19854;SDS011;10088;47.946;2.532;2023-04-25T05:02:47;12.63;;;5.53;;
19854;SDS011;10088;47.946;2.532;2023-04-25T05:05:12;15.47;;;5.67;;
19854;SDS011;10088;47.946;2.532;2023-04-25T05:07:37;14.43;;;5.30;;
19854;SDS011;10088;47.946;2.532;2023-04-25T05:10:03;14.67;;;5.23;;
19854;SDS011;10088;47.946;2.532;2023-04-25T05:12:28;12.13;;;5.03;;
19854;SDS011;10088;47.946;2.532;2023-04-25T05:14:53;7.77;;;5.10;;
19854;SDS011;10088;47.946;2.532;2023-04-25T05:17:19;9.03;;;4.60;;
19854;SDS011;10088;47.946;2.532;2023-04-25T05:19:44;7.83;;;5.00;;
19854;SDS011;10088;47.946;2.532;2023-04-25T05:22:09;14.17;;;5.30;;
19854;SDS011;10088;47.946;2.532;2023-04-25T05:24:35;10.23;;;4.90;;
19854;SDS011;10088;47.946;2.532;2023-04-25T05:27:00;9.93;;;5.07;;
19854;SDS011;10088;47.946;2.532;2023-04-25T05:29:25;9.13;;;5.40;;
19854;SDS011;10088;47.946;2.532;2023-04-25T05:31:51;15.40;;;5.87;;
19854;SDS011;10088;47.946;2.532;2023-04-25T05:34:16;8.17;;;5.17;;
19854;SDS011;10088;47.946;2.532;2023-04-25T05:36:42;12.80;;;5.67;;
19854;SDS011;10088;47.946;2.532;2023-04-25T05:39:07;17.00;;;5.53;;
19854;SDS011;10088;47.946;2.532;2023-04-25T05:41:33;8.47;;;5.07;;
19854;SDS011;10088;47.946;2.532;2023-04-25T05:43:59;12.77;;;5.30;;
19854;SDS011;10088;47.946;2.532;2023-04-25T05:46:24;7.63;;;5.20;;
19854;SDS011;10088;47.946;2.532;2023-04-25T05:48:49;11.37;;;5.33;;
19854;SDS011;10088;47.946;2.532;2023-04-25T05:51:15;7.93;;;5.20;;
19854;SDS011;10088;47.946;2.532;2023-04-25T05:53:41;10.73;;;5.43;;
19854;SDS011;10088;47.946;2.532;2023-04-25T05:56:06;9.90;;;5.17;;
19854;SDS011;10088;47.946;2.532;2023-04-25T05:58:31;12.00;;;5.03;;
19854;SDS011;10088;47.946;2.532;2023-04-25T06:00:57;13.93;;;5.67;;
19854;SDS011;10088;47.946;2.532;2023-04-25T06:03:23;14.27;;;5.37;;
19854;SDS011;10088;47.946;2.532;2023-04-25T06:05:48;11.87;;;5.43;;
19854;SDS011;10088;47.946;2.532;2023-04-25T06:08:13;10.30;;;5.37;;
19854;SDS011;10088;47.946;2.532;2023-04-25T06:10:39;14.57;;;5.00;;
19854;SDS011;10088;47.946;2.532;2023-04-25T06:13:04;9.90;;;5.47;;
19854;SDS011;10088;47.946;2.532;2023-04-25T06:15:30;9.97;;;5.50;;
19854;SDS011;10088;47.946;2.532;2023-04-25T06:17:57;14.33;;;6.00;;
19854;SDS011;10088;47.946;2.532;2023-04-25T06:20:22;11.13;;;5.23;;
19854;SDS011;10088;47.946;2.532;2023-04-25T06:22:49;14.37;;;5.73;;
19854;SDS011;10088;47.946;2.532;2023-04-25T06:25:15;10.60;;;4.80;;
19854;SDS011;10088;47.946;2.532;2023-04-25T06:27:40;14.97;;;5.33;;
19854;SDS011;10088;47.946;2.532;2023-04-25T06:30:06;15.83;;;6.33;;
19854;SDS011;10088;47.946;2.532;2023-04-25T06:32:31;13.60;;;4.93;;
19854;SDS011;10088;47.946;2.532;2023-04-25T06:34:57;12.03;;;4.93;;
19854;SDS011;10088;47.946;2.532;2023-04-25T06:37:22;15.07;;;4.87;;
19854;SDS011;10088;47.946;2.532;2023-04-25T06:39:48;11.67;;;4.93;;
19854;SDS011;10088;47.946;2.532;2023-04-25T06:42:13;11.50;;;5.00;;
19854;SDS011;10088;47.946;2.532;2023-04-25T06:44:38;8.47;;;4.50;;
19854;SDS011;10088;47.946;2.532;2023-04-25T06:47:04;10.43;;;4.60;;
19854;SDS011;10088;47.946;2.532;2023-04-25T06:49:29;10.93;;;4.40;;
19854;SDS011;10088;47.946;2.532;2023-04-25T06:51:54;9.53;;;4.63;;
19854;SDS011;10088;47.946;2.532;2023-04-25T06:54:19;9.27;;;3.87;;
19854;SDS011;10088;47.946;2.532;2023-04-25T06:56:45;7.83;;;4.20;;
19854;SDS011;10088;47.946;2.532;2023-04-25T06:59:10;8.00;;;4.37;;
19854;SDS011;10088;47.946;2.532;2023-04-25T07:01:36;11.27;;;3.77;;
19854;SDS011;10088;47.946;2.532;2023-04-25T07:04:01;6.90;;;3.67;;
19854;SDS011;10088;47.946;2.532;2023-04-25T07:06:27;13.67;;;3.70;;
19854;SDS011;10088;47.946;2.532;2023-04-25T07:08:53;7.60;;;3.40;;
19854;SDS011;10088;47.946;2.532;2023-04-25T07:11:18;7.43;;;3.60;;
19854;SDS011;10088;47.946;2.532;2023-04-25T07:13:43;8.50;;;3.53;;
19854;SDS011;10088;47.946;2.532;2023-04-25T07:16:08;7.57;;;3.00;;
19854;SDS011;10088;47.946;2.532;2023-04-25T07:18:34;8.70;;;4.40;;
19854;SDS011;10088;47.946;2.532;2023-04-25T07:20:59;12.97;;;3.60;;
19854;SDS011;10088;47.946;2.532;2023-04-25T07:23:24;9.13;;;4.00;;
19854;SDS011;10088;47.946;2.532;2023-04-25T07:25:50;12.37;;;4.07;;
19854;SDS011;10088;47.946;2.532;2023-04-25T07:28:15;9.00;;;3.67;;
19854;SDS011;10088;47.946;2.532;2023-04-25T07:30:40;7.37;;;3.43;;
19854;SDS011;10088;47.946;2.532;2023-04-25T07:33:06;8.87;;;3.33;;
19854;SDS011;10088;47.946;2.532;2023-04-25T07:35:31;5.50;;;3.03;;
19854;SDS011;10088;47.946;2.532;2023-04-25T07:37:56;8.13;;;3.50;;
19854;SDS011;10088;47.946;2.532;2023-04-25T07:40:21;5.43;;;2.60;;
19854;SDS011;10088;47.946;2.532;2023-04-25T07:42:47;4.53;;;3.03;;
19854;SDS011;10088;47.946;2.532;2023-04-25T07:45:12;8.83;;;3.37;;
19854;SDS011;10088;47.946;2.532;2023-04-25T07:47:38;4.07;;;2.80;;
19854;SDS011;10088;47.946;2.532;2023-04-25T07:50:03;7.07;;;2.77;;
19854;SDS011;10088;47.946;2.532;2023-04-25T07:52:29;4.00;;;2.47;;
19854;SDS011;10088;47.946;2.532;2023-04-25T07:54:54;6.50;;;2.80;;
19854;SDS011;10088;47.946;2.532;2023-04-25T07:57:19;5.60;;;2.40;;
19854;SDS011;10088;47.946;2.532;2023-04-25T07:59:45;4.67;;;2.10;;
19854;SDS011;10088;47.946;2.532;2023-04-25T08:02:10;7.50;;;2.80;;
19854;SDS011;10088;47.946;2.532;2023-04-25T08:04:35;8.87;;;3.03;;
19854;SDS011;10088;47.946;2.532;2023-04-25T08:07:01;6.40;;;3.00;;
19854;SDS011;10088;47.946;2.532;2023-04-25T08:09:26;8.87;;;3.10;;
19854;SDS011;10088;47.946;2.532;2023-04-25T08:11:51;6.33;;;2.60;;
19854;SDS011;10088;47.946;2.532;2023-04-25T08:14:17;6.63;;;2.87;;
19854;SDS011;10088;47.946;2.532;2023-04-25T08:16:42;6.83;;;3.10;;
19854;SDS011;10088;47.946;2.532;2023-04-25T08:19:07;4.87;;;2.40;;
19854;SDS011;10088;47.946;2.532;2023-04-25T08:21:33;6.00;;;2.60;;
19854;SDS011;10088;47.946;2.532;2023-04-25T08:23:58;8.17;;;3.10;;
19854;SDS011;10088;47.946;2.532;2023-04-25T08:26:24;7.27;;;3.43;;
19854;SDS011;10088;47.946;2.532;2023-04-25T08:28:49;6.43;;;2.80;;
19854;SDS011;10088;47.946;2.532;2023-04-25T08:31:15;8.10;;;3.17;;
19854;SDS011;10088;47.946;2.532;2023-04-25T08:33:40;4.50;;;2.80;;
19854;SDS011;10088;47.946;2.532;2023-04-25T08:36:05;9.63;;;3.70;;
19854;SDS011;10088;47.946;2.532;2023-04-25T08:38:31;8.37;;;3.37;;
19854;SDS011;10088;47.946;2.532;2023-04-25T08:40:56;6.53;;;2.80;;
19854;SDS011;10088;47.946;2.532;2023-04-25T08:43:21;5.07;;;2.80;;
19854;SDS011;10088;47.946;2.532;2023-04-25T08:45:48;6.03;;;3.33;;
19854;SDS011;10088;47.946;2.532;2023-04-25T08:48:14;4.70;;;2.87;;
19854;SDS011;10088;47.946;2.532;2023-04-25T08:50:59;6.20;;;3.43;;
19854;SDS011;10088;47.946;2.532;2023-04-25T08:53:26;6.83;;;3.33;;
19854;SDS011;10088;47.946;2.532;2023-04-25T08:55:56;7.93;;;4.10;;
19854;SDS011;10088;47.946;2.532;2023-04-25T08:58:21;5.43;;;3.70;;
19854;SDS011;10088;47.946;2.532;2023-04-25T09:00:47;5.53;;;3.33;;
19854;SDS011;10088;47.946;2.532;2023-04-25T09:03:13;7.93;;;3.57;;
19854;SDS011;10088;47.946;2.532;2023-04-25T09:05:39;8.07;;;3.17;;
19854;SDS011;10088;47.946;2.532;2023-04-25T09:08:05;4.47;;;2.57;;
19854;SDS011;10088;47.946;2.532;2023-04-25T09:10:30;6.80;;;2.57;;
19854;SDS011;10088;47.946;2.532;2023-04-25T09:13:09;11.07;;;3.10;;
19854;SDS011;10088;47.946;2.532;2023-04-25T09:15:52;6.83;;;3.00;;
19854;SDS011;10088;47.946;2.532;2023-04-25T09:18:27;8.03;;;2.90;;
19854;SDS011;10088;47.946;2.532;2023-04-25T09:20:58;5.13;;;2.73;;
19854;SDS011;10088;47.946;2.532;2023-04-25T09:23:24;6.57;;;2.60;;
19854;SDS011;10088;47.946;2.532;2023-04-25T09:25:50;4.30;;;2.80;;
19854;SDS011;10088;47.946;2.532;2023-04-25T09:28:15;6.17;;;3.00;;
19854;SDS011;10088;47.946;2.532;2023-04-25T09:30:41;9.37;;;3.40;;
19854;SDS011;10088;47.946;2.532;2023-04-25T09:33:06;6.53;;;2.40;;
19854;SDS011;10088;47.946;2.532;2023-04-25T09:35:39;4.97;;;2.60;;
19854;SDS011;10088;47.946;2.532;2023-04-25T09:38:08;4.77;;;2.53;;
19854;SDS011;10088;47.946;2.532;2023-04-25T09:40:33;4.53;;;2.60;;
19854;SDS011;10088;47.946;2.532;2023-04-25T09:42:59;5.73;;;2.60;;
19854;SDS011;10088;47.946;2.532;2023-04-25T09:45:25;8.23;;;2.57;;
19854;SDS011;10088;47.946;2.532;2023-04-25T09:47:50;3.60;;;1.90;;
19854;SDS011;10088;47.946;2.532;2023-04-25T09:50:20;7.93;;;2.20;;
19854;SDS011;10088;47.946;2.532;2023-04-25T09:52:48;5.27;;;2.27;;
19854;SDS011;10088;47.946;2.532;2023-04-25T09:55:27;4.33;;;2.20;;
19854;SDS011;10088;47.946;2.532;2023-04-25T09:57:52;5.90;;;2.47;;
19854;SDS011;10088;47.946;2.532;2023-04-25T10:00:19;5.53;;;2.53;;
19854;SDS011;10088;47.946;2.532;2023-04-25T10:02:46;5.90;;;2.37;;
19854;SDS011;10088;47.946;2.532;2023-04-25T10:05:13;4.03;;;2.17;;
19854;SDS011;10088;47.946;2.532;2023-04-25T10:07:39;5.37;;;2.23;;
19854;SDS011;10088;47.946;2.532;2023-04-25T10:10:05;7.30;;;2.63;;
19854;SDS011;10088;47.946;2.532;2023-04-25T10:12:31;4.53;;;2.80;;
19854;SDS011;10088;47.946;2.532;2023-04-25T10:14:58;5.13;;;2.67;;
19854;SDS011;10088;47.946;2.532;2023-04-25T10:17:23;5.27;;;2.60;;
19854;SDS011;10088;47.946;2.532;2023-04-25T10:19:49;6.43;;;2.20;;
19854;SDS011;10088;47.946;2.532;2023-04-25T10:22:36;5.63;;;2.40;;
19854;SDS011;10088;47.946;2.532;2023-04-25T10:25:01;3.23;;;2.23;;
19854;SDS011;10088;47.946;2.532;2023-04-25T10:27:29;5.80;;;3.00;;
19854;SDS011;10088;47.946;2.532;2023-04-25T10:30:05;8.43;;;2.63;;
19854;SDS011;10088;47.946;2.532;2023-04-25T10:32:31;4.83;;;2.77;;
19854;SDS011;10088;47.946;2.532;2023-04-25T10:35:16;7.47;;;2.60;;
19854;SDS011;10088;47.946;2.532;2023-04-25T10:40:26;5.63;;;3.13;;
19854;SDS011;10088;47.946;2.532;2023-04-25T10:42:52;5.90;;;3.93;;
19854;SDS011;10088;47.946;2.532;2023-04-25T10:45:17;9.70;;;4.57;;
19854;SDS011;10088;47.946;2.532;2023-04-25T10:47:43;10.37;;;4.30;;
19854;SDS011;10088;47.946;2.532;2023-04-25T10:50:09;7.13;;;3.70;;
19854;SDS011;10088;47.946;2.532;2023-04-25T10:52:34;6.57;;;3.57;;
19854;SDS011;10088;47.946;2.532;2023-04-25T10:55:00;6.93;;;3.20;;
19854;SDS011;10088;47.946;2.532;2023-04-25T11:00:00;7.57;;;2.63;;
19854;SDS011;10088;47.946;2.532;2023-04-25T11:02:26;3.27;;;2.43;;
19854;SDS011;10088;47.946;2.532;2023-04-25T11:04:53;5.07;;;2.50;;
19854;SDS011;10088;47.946;2.532;2023-04-25T11:10:03;4.43;;;2.73;;
19854;SDS011;10088;47.946;2.532;2023-04-25T11:12:29;5.33;;;3.20;;
19854;SDS011;10088;47.946;2.532;2023-04-25T11:14:59;4.97;;;3.00;;
19854;SDS011;10088;47.946;2.532;2023-04-25T11:17:26;6.97;;;3.20;;
19854;SDS011;10088;47.946;2.532;2023-04-25T11:19:51;6.53;;;3.90;;
19854;SDS011;10088;47.946;2.532;2023-04-25T11:22:16;6.43;;;3.37;;
19854;SDS011;10088;47.946;2.532;2023-04-25T11:24:41;9.13;;;3.00;;
19854;SDS011;10088;47.946;2.532;2023-04-25T11:27:07;4.03;;;2.33;;
19854;SDS011;10088;47.946;2.532;2023-04-25T11:29:33;3.50;;;2.77;;
19854;SDS011;10088;47.946;2.532;2023-04-25T11:31:59;6.77;;;2.67;;
19854;SDS011;10088;47.946;2.532;2023-04-25T11:34:26;5.43;;;2.40;;
19854;SDS011;10088;47.946;2.532;2023-04-25T11:36:51;5.37;;;2.53;;
19854;SDS011;10088;47.946;2.532;2023-04-25T11:39:18;4.90;;;2.33;;
19854;SDS011;10088;47.946;2.532;2023-04-25T11:41:43;4.50;;;2.07;;
19854;SDS011;10088;47.946;2.532;2023-04-25T11:44:08;6.67;;;2.50;;
19854;SDS011;10088;47.946;2.532;2023-04-25T11:46:34;6.40;;;2.10;;
19854;SDS011;10088;47.946;2.532;2023-04-25T11:48:59;2.87;;;2.37;;
19854;SDS011;10088;47.946;2.532;2023-04-25T11:51:25;5.57;;;2.20;;
19854;SDS011;10088;47.946;2.532;2023-04-25T11:53:51;3.87;;;2.53;;
19854;SDS011;10088;47.946;2.532;2023-04-25T11:56:16;3.53;;;2.20;;
19854;SDS011;10088;47.946;2.532;2023-04-25T11:59:01;4.03;;;1.83;;
19854;SDS011;10088;47.946;2.532;2023-04-25T12:01:34;3.07;;;1.27;;
19854;SDS011;10088;47.946;2.532;2023-04-25T12:06:44;3.07;;;1.40;;
19854;SDS011;10088;47.946;2.532;2023-04-25T12:09:12;2.10;;;1.70;;
19854;SDS011;10088;47.946;2.532;2023-04-25T12:14:09;3.67;;;2.20;;
19854;SDS011;10088;47.946;2.532;2023-04-25T12:16:44;3.07;;;1.70;;
19854;SDS011;10088;47.946;2.532;2023-04-25T12:19:09;2.63;;;1.67;;
19854;SDS011;10088;47.946;2.532;2023-04-25T12:21:35;2.97;;;1.70;;
19854;SDS011;10088;47.946;2.532;2023-04-25T12:24:14;3.93;;;2.13;;
19854;SDS011;10088;47.946;2.532;2023-04-25T12:26:53;5.30;;;2.30;;
19854;SDS011;10088;47.946;2.532;2023-04-25T12:29:22;4.07;;;2.40;;
19854;SDS011;10088;47.946;2.532;2023-04-25T12:31:49;3.13;;;2.20;;
19854;SDS011;10088;47.946;2.532;2023-04-25T12:34:14;3.83;;;2.83;;
19854;SDS011;10088;47.946;2.532;2023-04-25T12:36:40;6.67;;;2.70;;
19854;SDS011;10088;47.946;2.532;2023-04-25T12:39:05;6.13;;;2.77;;
19854;SDS011;10088;47.946;2.532;2023-04-25T12:41:31;6.40;;;2.90;;
19854;SDS011;10088;47.946;2.532;2023-04-25T12:43:57;6.00;;;3.33;;
19854;SDS011;10088;47.946;2.532;2023-04-25T12:46:22;6.10;;;3.00;;
19854;SDS011;10088;47.946;2.532;2023-04-25T12:48:50;3.63;;;2.40;;
19854;SDS011;10088;47.946;2.532;2023-04-25T12:51:15;5.93;;;2.67;;
19854;SDS011;10088;47.946;2.532;2023-04-25T12:53:40;3.57;;;2.00;;
19854;SDS011;10088;47.946;2.532;2023-04-25T12:56:09;5.93;;;2.43;;
19854;SDS011;10088;47.946;2.532;2023-04-25T12:58:34;3.67;;;2.60;;
19854;SDS011;10088;47.946;2.532;2023-04-25T13:01:00;3.13;;;2.10;;
19854;SDS011;10088;47.946;2.532;2023-04-25T13:03:25;3.37;;;2.73;;
19854;SDS011;10088;47.946;2.532;2023-04-25T13:05:51;5.60;;;2.73;;
19854;SDS011;10088;47.946;2.532;2023-04-25T13:08:17;3.57;;;2.00;;
19854;SDS011;10088;47.946;2.532;2023-04-25T13:10:42;3.47;;;2.00;;
19854;SDS011;10088;47.946;2.532;2023-04-25T13:13:08;5.60;;;2.70;;
19854;SDS011;10088;47.946;2.532;2023-04-25T13:15:33;4.43;;;3.63;;
19854;SDS011;10088;47.946;2.532;2023-04-25T13:17:58;5.87;;;3.20;;
19854;SDS011;10088;47.946;2.532;2023-04-25T13:20:24;4.47;;;2.40;;
19854;SDS011;10088;47.946;2.532;2023-04-25T13:22:49;3.80;;;2.40;;
19854;SDS011;10088;47.946;2.532;2023-04-25T13:25:15;4.23;;;2.40;;
19854;SDS011;10088;47.946;2.532;2023-04-25T13:27:41;4.70;;;2.20;;
19854;SDS011;10088;47.946;2.532;2023-04-25T13:30:09;3.93;;;2.40;;
19854;SDS011;10088;47.946;2.532;2023-04-25T13:32:34;3.83;;;2.83;;
19854;SDS011;10088;47.946;2.532;2023-04-25T13:35:03;2.83;;;2.60;;
19854;SDS011;10088;47.946;2.532;2023-04-25T13:37:29;3.40;;;2.30;;
19854;SDS011;10088;47.946;2.532;2023-04-25T13:39:55;3.73;;;2.43;;
19854;SDS011;10088;47.946;2.532;2023-04-25T13:42:21;5.47;;;2.70;;
19854;SDS011;10088;47.946;2.532;2023-04-25T13:44:46;3.03;;;2.37;;
19854;SDS011;10088;47.946;2.532;2023-04-25T13:47:12;3.23;;;2.33;;
19854;SDS011;10088;47.946;2.532;2023-04-25T13:49:37;3.33;;;2.27;;
19854;SDS011;10088;47.946;2.532;2023-04-25T13:52:02;6.80;;;3.10;;
19854;SDS011;10088;47.946;2.532;2023-04-25T13:54:27;4.33;;;3.00;;
19854;SDS011;10088;47.946;2.532;2023-04-25T13:56:52;5.70;;;3.23;;
19854;SDS011;10088;47.946;2.532;2023-04-25T13:59:23;5.07;;;3.20;;
19854;SDS011;10088;47.946;2.532;2023-04-25T14:01:48;3.67;;;3.20;;
19854;SDS011;10088;47.946;2.532;2023-04-25T14:04:14;6.57;;;2.67;;
19854;SDS011;10088;47.946;2.532;2023-04-25T14:06:39;3.40;;;2.70;;
19854;SDS011;10088;47.946;2.532;2023-04-25T14:09:04;5.90;;;3.13;;
19854;SDS011;10088;47.946;2.532;2023-04-25T14:11:31;3.50;;;2.63;;
19854;SDS011;10088;47.946;2.532;2023-04-25T14:13:56;7.13;;;4.40;;
19854;SDS011;10088;47.946;2.532;2023-04-25T14:16:22;4.03;;;2.50;;
19854;SDS011;10088;47.946;2.532;2023-04-25T14:18:48;4.77;;;2.87;;
19854;SDS011;10088;47.946;2.532;2023-04-25T14:21:13;4.33;;;2.50;;
19854;SDS011;10088;47.946;2.532;2023-04-25T14:23:38;3.37;;;2.20;;
19854;SDS011;10088;47.946;2.532;2023-04-25T14:26:04;2.00;;;1.80;;
19854;SDS011;10088;47.946;2.532;2023-04-25T14:28:29;2.63;;;2.40;;
19854;SDS011;10088;47.946;2.532;2023-04-25T14:30:54;2.83;;;2.03;;
19854;SDS011;10088;47.946;2.532;2023-04-25T14:33:20;2.83;;;1.90;;
19854;SDS011;10088;47.946;2.532;2023-04-25T14:35:45;3.07;;;2.73;;
19854;SDS011;10088;47.946;2.532;2023-04-25T14:38:11;4.90;;;3.13;;
19854;SDS011;10088;47.946;2.532;2023-04-25T14:40:36;4.57;;;2.77;;
19854;SDS011;10088;47.946;2.532;2023-04-25T14:43:02;3.07;;;1.83;;
19854;SDS011;10088;47.946;2.532;2023-04-25T14:45:27;4.27;;;2.47;;
19854;SDS011;10088;47.946;2.532;2023-04-25T14:47:53;4.63;;;3.00;;
19854;SDS011;10088;47.946;2.532;2023-04-25T14:50:18;4.30;;;2.30;;
19854;SDS011;10088;47.946;2.532;2023-04-25T14:52:43;4.53;;;2.43;;